sensor_id;sensor_type;location;lat;lon;timestamp;pressure;altitude;pressure_sealevel;temperature;humidity
58467;BME280;44255;49.244;7.726;2023-02-18T04:31:05;99126.38;;;6.08;83.67
58467;BME280;44255;49.244;7.726;2023-02-18T04:33:30;99117.88;;;6.43;81.21
58467;BME280;44255;49.244;7.726;2023-02-18T04:35:56;99113.72;;;6.58;80.09
58467;BME280;44255;49.244;7.726;2023-02-18T04:38:21;99105.59;;;6.37;80.83
58467;BME280;44255;49.244;7.726;2023-02-18T04:40:47;99109.97;;;6.62;79.85
58467;BME280;44255;49.244;7.726;2023-02-18T04:43:12;99112.28;;;6.49;80.35
58467;BME280;44255;49.244;7.726;2023-02-18T04:45:38;99125.38;;;6.11;81.61
58467;BME280;44255;49.244;7.726;2023-02-18T04:48:03;99116.94;;;6.67;80.23
58467;BME280;44255;49.244;7.726;2023-02-18T04:50:28;99117.22;;;6.36;80.27
58467;BME280;44255;49.244;7.726;2023-02-18T04:52:54;99114.19;;;6.23;81.29
58467;BME280;44255;49.244;7.726;2023-02-18T04:55:19;99105.22;;;6.47;80.98
58467;BME280;44255;49.244;7.726;2023-02-18T04:57:44;99108.53;;;6.31;79.90
58467;BME280;44255;49.244;7.726;2023-02-18T05:00:13;99108.69;;;6.27;81.15
58467;BME280;44255;49.244;7.726;2023-02-18T05:02:39;99102.16;;;6.12;81.37
58467;BME280;44255;49.244;7.726;2023-02-18T05:05:04;99089.28;;;6.21;80.50
58467;BME280;44255;49.244;7.726;2023-02-18T05:07:30;99087.41;;;6.01;80.99
58467;BME280;44255;49.244;7.726;2023-02-18T05:09:55;99089.91;;;6.28;80.86
58467;BME280;44255;49.244;7.726;2023-02-18T05:12:20;99092.81;;;5.76;81.95
58467;BME280;44255;49.244;7.726;2023-02-18T05:14:45;99089.16;;;6.25;80.11
58467;BME280;44255;49.244;7.726;2023-02-18T05:17:11;99090.28;;;5.73;81.96
58467;BME280;44255;49.244;7.726;2023-02-18T05:19:36;99083.56;;;5.85;81.17
58467;BME280;44255;49.244;7.726;2023-02-18T05:22:01;99080.16;;;6.27;80.82
58467;BME280;44255;49.244;7.726;2023-02-18T05:24:26;99076.53;;;6.50;79.58
58467;BME280;44255;49.244;7.726;2023-02-18T05:26:52;99087.81;;;5.90;81.85
58467;BME280;44255;49.244;7.726;2023-02-18T05:29:17;99078.31;;;6.28;80.63
58467;BME280;44255;49.244;7.726;2023-02-18T05:31:42;99096.31;;;5.78;83.17
58467;BME280;44255;49.244;7.726;2023-02-18T05:34:07;99075.00;;;5.76;84.01
58467;BME280;44255;49.244;7.726;2023-02-18T05:36:33;99084.41;;;6.09;82.75
58467;BME280;44255;49.244;7.726;2023-02-18T05:38:58;99088.84;;;6.10;81.25
58467;BME280;44255;49.244;7.726;2023-02-18T05:41:23;99099.38;;;6.37;80.61
58467;BME280;44255;49.244;7.726;2023-02-18T05:43:49;99092.53;;;5.84;81.80
58467;BME280;44255;49.244;7.726;2023-02-18T05:46:32;99080.50;;;5.96;82.75
58467;BME280;44255;49.244;7.726;2023-02-18T05:48:58;99073.84;;;6.06;82.27
58467;BME280;44255;49.244;7.726;2023-02-18T05:51:23;99081.66;;;5.88;83.43
58467;BME280;44255;49.244;7.726;2023-02-18T05:53:48;99078.56;;;5.99;82.82
58467;BME280;44255;49.244;7.726;2023-02-18T05:56:14;99075.34;;;5.91;83.63
58467;BME280;44255;49.244;7.726;2023-02-18T05:58:39;99070.59;;;6.20;82.11
58467;BME280;44255;49.244;7.726;2023-02-18T06:01:04;99082.03;;;5.79;83.68
58467;BME280;44255;49.244;7.726;2023-02-18T06:03:29;99086.56;;;5.53;85.52
58467;BME280;44255;49.244;7.726;2023-02-18T06:05:55;99083.69;;;6.05;83.50
58467;BME280;44255;49.244;7.726;2023-02-18T06:08:20;99083.19;;;5.72;83.62
58467;BME280;44255;49.244;7.726;2023-02-18T06:10:45;99075.03;;;5.75;83.31
58467;BME280;44255;49.244;7.726;2023-02-18T06:13:11;99088.78;;;6.12;82.16
58467;BME280;44255;49.244;7.726;2023-02-18T06:15:37;99092.13;;;5.94;83.41
58467;BME280;44255;49.244;7.726;2023-02-18T06:18:02;99090.78;;;6.06;82.33
58467;BME280;44255;49.244;7.726;2023-02-18T06:20:27;99092.03;;;5.98;82.80
58467;BME280;44255;49.244;7.726;2023-02-18T06:22:53;99091.13;;;6.21;82.28
58467;BME280;44255;49.244;7.726;2023-02-18T06:25:18;99079.47;;;6.22;82.09
58467;BME280;44255;49.244;7.726;2023-02-18T06:27:43;99085.00;;;6.17;81.73
58467;BME280;44255;49.244;7.726;2023-02-18T06:30:09;99072.03;;;6.29;81.42
58467;BME280;44255;49.244;7.726;2023-02-18T06:32:34;99077.03;;;6.38;80.31
58467;BME280;44255;49.244;7.726;2023-02-18T06:34:59;99077.59;;;6.24;81.98
58467;BME280;44255;49.244;7.726;2023-02-18T06:37:25;99070.19;;;6.08;81.92
58467;BME280;44255;49.244;7.726;2023-02-18T06:39:50;99067.38;;;6.12;82.69
58467;BME280;44255;49.244;7.726;2023-02-18T06:42:15;99069.59;;;6.67;80.08
58467;BME280;44255;49.244;7.726;2023-02-18T06:44:40;99077.59;;;6.02;82.73
58467;BME280;44255;49.244;7.726;2023-02-18T06:47:06;99076.41;;;6.31;81.20
58467;BME280;44255;49.244;7.726;2023-02-18T06:49:31;99067.25;;;6.37;81.43
58467;BME280;44255;49.244;7.726;2023-02-18T06:51:57;99065.75;;;6.52;80.51
58467;BME280;44255;49.244;7.726;2023-02-18T06:54:22;99064.91;;;6.29;80.98
58467;BME280;44255;49.244;7.726;2023-02-18T06:56:47;99059.66;;;6.26;81.44
58467;BME280;44255;49.244;7.726;2023-02-18T06:59:12;99063.34;;;6.23;81.26
58467;BME280;44255;49.244;7.726;2023-02-18T07:01:38;99062.63;;;5.96;82.51
58467;BME280;44255;49.244;7.726;2023-02-18T07:04:03;99057.91;;;6.03;81.55
58467;BME280;44255;49.244;7.726;2023-02-18T07:06:28;99045.97;;;6.34;81.46
58467;BME280;44255;49.244;7.726;2023-02-18T07:08:54;99045.34;;;6.49;80.08
58467;BME280;44255;49.244;7.726;2023-02-18T07:11:19;99045.72;;;6.18;81.51
58467;BME280;44255;49.244;7.726;2023-02-18T07:13:44;99057.66;;;6.31;80.29
58467;BME280;44255;49.244;7.726;2023-02-18T07:16:10;99044.09;;;6.14;80.94
58467;BME280;44255;49.244;7.726;2023-02-18T07:18:35;99043.84;;;6.42;79.44
58467;BME280;44255;49.244;7.726;2023-02-18T07:21:01;99041.25;;;6.18;80.61
58467;BME280;44255;49.244;7.726;2023-02-18T07:23:26;99040.97;;;6.25;80.12
58467;BME280;44255;49.244;7.726;2023-02-18T07:25:51;99037.81;;;6.37;79.90
58467;BME280;44255;49.244;7.726;2023-02-18T07:28:16;99034.19;;;6.16;80.17
58467;BME280;44255;49.244;7.726;2023-02-18T07:30:42;99042.97;;;5.97;80.91
58467;BME280;44255;49.244;7.726;2023-02-18T07:33:07;99036.53;;;6.25;79.97
58467;BME280;44255;49.244;7.726;2023-02-18T07:35:32;99031.09;;;6.27;79.87
58467;BME280;44255;49.244;7.726;2023-02-18T07:37:57;99026.41;;;5.87;81.07
58467;BME280;44255;49.244;7.726;2023-02-18T07:40:23;99035.13;;;6.15;80.51
58467;BME280;44255;49.244;7.726;2023-02-18T07:42:48;99029.88;;;6.56;78.75
58467;BME280;44255;49.244;7.726;2023-02-18T07:45:14;99032.16;;;6.00;80.82
58467;BME280;44255;49.244;7.726;2023-02-18T07:47:39;99030.53;;;6.41;79.53
58467;BME280;44255;49.244;7.726;2023-02-18T07:50:07;99030.63;;;6.37;78.74
58467;BME280;44255;49.244;7.726;2023-02-18T07:52:32;99024.06;;;6.24;79.50
58467;BME280;44255;49.244;7.726;2023-02-18T07:54:58;99021.81;;;6.35;79.33
58467;BME280;44255;49.244;7.726;2023-02-18T07:57:23;99038.44;;;6.21;79.46
58467;BME280;44255;49.244;7.726;2023-02-18T07:59:48;99044.59;;;6.01;79.93
58467;BME280;44255;49.244;7.726;2023-02-18T08:02:16;99036.00;;;6.37;79.11
58467;BME280;44255;49.244;7.726;2023-02-18T08:04:42;99040.00;;;6.05;80.37
58467;BME280;44255;49.244;7.726;2023-02-18T08:07:12;99034.97;;;6.19;79.08
58467;BME280;44255;49.244;7.726;2023-02-18T08:09:37;99037.78;;;6.59;77.88
58467;BME280;44255;49.244;7.726;2023-02-18T08:12:02;99035.59;;;6.69;76.98
58467;BME280;44255;49.244;7.726;2023-02-18T08:14:28;99027.13;;;6.58;77.13
58467;BME280;44255;49.244;7.726;2023-02-18T08:16:53;99035.44;;;6.29;78.26
58467;BME280;44255;49.244;7.726;2023-02-18T08:19:19;99029.63;;;6.62;76.98
58467;BME280;44255;49.244;7.726;2023-02-18T08:21:44;99034.09;;;6.62;77.04
58467;BME280;44255;49.244;7.726;2023-02-18T08:24:10;99034.41;;;6.76;76.30
58467;BME280;44255;49.244;7.726;2023-02-18T08:26:35;99039.38;;;6.43;76.93
58467;BME280;44255;49.244;7.726;2023-02-18T08:29:00;99022.84;;;6.76;76.28
58467;BME280;44255;49.244;7.726;2023-02-18T08:31:28;99023.97;;;6.91;75.28
58467;BME280;44255;49.244;7.726;2023-02-18T08:33:54;99021.16;;;6.73;76.06
58467;BME280;44255;49.244;7.726;2023-02-18T08:36:21;99016.69;;;6.51;76.61
58467;BME280;44255;49.244;7.726;2023-02-18T08:38:46;99014.63;;;6.58;75.97
58467;BME280;44255;49.244;7.726;2023-02-18T08:41:12;99009.75;;;6.89;74.70
58467;BME280;44255;49.244;7.726;2023-02-18T08:43:38;98990.38;;;6.61;75.31
58467;BME280;44255;49.244;7.726;2023-02-18T08:46:04;99016.88;;;6.47;76.19
58467;BME280;44255;49.244;7.726;2023-02-18T08:48:29;99010.38;;;6.96;74.63
58467;BME280;44255;49.244;7.726;2023-02-18T08:50:55;99013.03;;;6.96;74.07
58467;BME280;44255;49.244;7.726;2023-02-18T08:53:20;99019.88;;;6.82;74.43
58467;BME280;44255;49.244;7.726;2023-02-18T08:55:46;99014.13;;;6.91;73.66
58467;BME280;44255;49.244;7.726;2023-02-18T08:58:11;99015.91;;;7.12;73.01
58467;BME280;44255;49.244;7.726;2023-02-18T09:00:38;99019.56;;;6.47;74.32
58467;BME280;44255;49.244;7.726;2023-02-18T09:03:03;99009.88;;;7.06;73.34
58467;BME280;44255;49.244;7.726;2023-02-18T09:05:29;99018.41;;;6.96;72.97
58467;BME280;44255;49.244;7.726;2023-02-18T09:07:54;99016.91;;;7.09;72.14
58467;BME280;44255;49.244;7.726;2023-02-18T09:10:19;99023.22;;;6.87;73.56
58467;BME280;44255;49.244;7.726;2023-02-18T09:12:45;99008.34;;;6.80;74.86
58467;BME280;44255;49.244;7.726;2023-02-18T09:15:10;99017.19;;;7.03;73.73
58467;BME280;44255;49.244;7.726;2023-02-18T09:17:35;99021.81;;;6.78;73.58
58467;BME280;44255;49.244;7.726;2023-02-18T09:20:00;99016.16;;;6.64;74.16
58467;BME280;44255;49.244;7.726;2023-02-18T09:22:26;99019.84;;;6.61;73.92
58467;BME280;44255;49.244;7.726;2023-02-18T09:24:51;99002.56;;;6.69;73.97
58467;BME280;44255;49.244;7.726;2023-02-18T09:27:16;99015.81;;;6.51;73.72
58467;BME280;44255;49.244;7.726;2023-02-18T09:29:42;99012.91;;;6.78;72.40
58467;BME280;44255;49.244;7.726;2023-02-18T09:32:08;99018.06;;;7.03;71.89
58467;BME280;44255;49.244;7.726;2023-02-18T09:34:34;99018.53;;;6.92;71.15
58467;BME280;44255;49.244;7.726;2023-02-18T09:37:00;99023.22;;;7.08;71.11
58467;BME280;44255;49.244;7.726;2023-02-18T09:39:25;99028.75;;;7.24;70.63
58467;BME280;44255;49.244;7.726;2023-02-18T09:42:03;99038.09;;;6.74;71.00
58467;BME280;44255;49.244;7.726;2023-02-18T09:44:31;99037.69;;;6.61;70.86
58467;BME280;44255;49.244;7.726;2023-02-18T09:47:05;99029.78;;;7.01;70.11
58467;BME280;44255;49.244;7.726;2023-02-18T09:49:34;99034.75;;;7.29;68.22
58467;BME280;44255;49.244;7.726;2023-02-18T09:52:11;99038.81;;;7.19;68.58
58467;BME280;44255;49.244;7.726;2023-02-18T09:54:37;99043.59;;;6.91;69.21
58467;BME280;44255;49.244;7.726;2023-02-18T09:57:03;99039.06;;;7.53;67.24
58467;BME280;44255;49.244;7.726;2023-02-18T09:59:30;99045.03;;;7.19;67.39
58467;BME280;44255;49.244;7.726;2023-02-18T10:01:56;99042.59;;;7.34;68.39
58467;BME280;44255;49.244;7.726;2023-02-18T10:04:35;99015.72;;;7.55;67.22
58467;BME280;44255;49.244;7.726;2023-02-18T10:07:01;99024.16;;;7.07;68.57
58467;BME280;44255;49.244;7.726;2023-02-18T10:09:32;99031.97;;;7.12;67.65
58467;BME280;44255;49.244;7.726;2023-02-18T10:12:12;99009.94;;;6.84;69.07
58467;BME280;44255;49.244;7.726;2023-02-18T10:14:39;98995.47;;;7.09;68.77
58467;BME280;44255;49.244;7.726;2023-02-18T10:17:05;99011.97;;;7.00;68.57
58467;BME280;44255;49.244;7.726;2023-02-18T10:19:37;99007.88;;;6.91;69.15
58467;BME280;44255;49.244;7.726;2023-02-18T10:22:07;99014.13;;;6.91;68.79
58467;BME280;44255;49.244;7.726;2023-02-18T10:27:05;99025.31;;;7.01;68.60
58467;BME280;44255;49.244;7.726;2023-02-18T10:29:31;99021.28;;;6.91;69.37
58467;BME280;44255;49.244;7.726;2023-02-18T10:32:05;99028.31;;;6.93;68.70
58467;BME280;44255;49.244;7.726;2023-02-18T10:34:57;99034.25;;;6.79;68.46
58467;BME280;44255;49.244;7.726;2023-02-18T10:51:23;99039.03;;;6.73;68.57
58467;BME280;44255;49.244;7.726;2023-02-18T10:53:51;99056.25;;;6.65;69.04
58467;BME280;44255;49.244;7.726;2023-02-18T10:56:38;99075.75;;;6.91;69.10
58467;BME280;44255;49.244;7.726;2023-02-18T10:59:09;99067.25;;;6.59;70.32
58467;BME280;44255;49.244;7.726;2023-02-18T11:01:35;99065.88;;;6.49;70.85
58467;BME280;44255;49.244;7.726;2023-02-18T11:04:09;99058.28;;;6.38;71.36
58467;BME280;44255;49.244;7.726;2023-02-18T11:06:50;99062.72;;;6.39;70.76
58467;BME280;44255;49.244;7.726;2023-02-18T11:09:40;99071.25;;;6.04;71.97
58467;BME280;44255;49.244;7.726;2023-02-18T11:12:21;99065.56;;;6.57;69.75
58467;BME280;44255;49.244;7.726;2023-02-18T11:15:02;99062.75;;;5.93;72.01
58467;BME280;44255;49.244;7.726;2023-02-18T11:17:31;99078.50;;;6.01;71.84
58467;BME280;44255;49.244;7.726;2023-02-18T11:19:59;99066.19;;;6.41;69.92
58467;BME280;44255;49.244;7.726;2023-02-18T11:24:56;99071.50;;;6.43;69.60
58467;BME280;44255;49.244;7.726;2023-02-18T11:27:25;99071.84;;;6.56;69.37
58467;BME280;44255;49.244;7.726;2023-02-18T11:29:55;99088.72;;;6.80;67.83
58467;BME280;44255;49.244;7.726;2023-02-18T11:32:26;99054.22;;;6.72;67.20
58467;BME280;44255;49.244;7.726;2023-02-18T11:34:52;99073.84;;;6.50;67.59
58467;BME280;44255;49.244;7.726;2023-02-18T11:37:19;99075.09;;;6.19;68.06
58467;BME280;44255;49.244;7.726;2023-02-18T11:39:47;99060.88;;;6.62;67.04
58467;BME280;44255;49.244;7.726;2023-02-18T11:42:16;99056.84;;;7.15;65.35
58467;BME280;44255;49.244;7.726;2023-02-18T11:44:55;99062.88;;;6.79;65.84
58467;BME280;44255;49.244;7.726;2023-02-18T11:47:32;99055.09;;;7.14;65.58
58467;BME280;44255;49.244;7.726;2023-02-18T11:50:02;99051.28;;;7.20;64.34
58467;BME280;44255;49.244;7.726;2023-02-18T11:52:36;99059.75;;;6.68;65.01
58467;BME280;44255;49.244;7.726;2023-02-18T11:55:06;99057.84;;;6.92;64.60
58467;BME280;44255;49.244;7.726;2023-02-18T11:57:37;99052.63;;;6.67;64.74
58467;BME280;44255;49.244;7.726;2023-02-18T12:02:46;99041.91;;;7.10;64.25
58467;BME280;44255;49.244;7.726;2023-02-18T12:05:21;99056.53;;;6.59;64.90
58467;BME280;44255;49.244;7.726;2023-02-18T12:08:06;99038.84;;;6.98;63.87
58467;BME280;44255;49.244;7.726;2023-02-18T12:10:43;99040.69;;;6.53;63.53
58467;BME280;44255;49.244;7.726;2023-02-18T12:13:27;99035.56;;;6.91;63.09
58467;BME280;44255;49.244;7.726;2023-02-18T12:16:10;99029.63;;;7.04;63.06
58467;BME280;44255;49.244;7.726;2023-02-18T12:27:25;99024.09;;;8.06;59.04
58467;BME280;44255;49.244;7.726;2023-02-18T12:41:49;99010.25;;;8.50;56.70
58467;BME280;44255;49.244;7.726;2023-02-18T12:44:39;98994.94;;;11.55;50.77
58467;BME280;44255;49.244;7.726;2023-02-18T12:52:40;99025.09;;;8.40;55.52
58467;BME280;44255;49.244;7.726;2023-02-18T12:58:45;99005.75;;;7.18;58.10
58467;BME280;44255;49.244;7.726;2023-02-18T13:01:53;99021.00;;;7.37;58.61
58467;BME280;44255;49.244;7.726;2023-02-18T13:12:23;99018.13;;;7.02;59.12
58467;BME280;44255;49.244;7.726;2023-02-18T13:14:58;99026.56;;;7.91;56.94
58467;BME280;44255;49.244;7.726;2023-02-18T13:17:26;98999.81;;;8.27;55.92
58467;BME280;44255;49.244;7.726;2023-02-18T13:20:11;99006.69;;;7.57;57.79
58467;BME280;44255;49.244;7.726;2023-02-18T13:22:38;99003.56;;;7.07;58.73
58467;BME280;44255;49.244;7.726;2023-02-18T13:25:03;98997.22;;;7.10;58.09
58467;BME280;44255;49.244;7.726;2023-02-18T13:28:06;98998.09;;;7.49;58.10
58467;BME280;44255;49.244;7.726;2023-02-18T13:30:30;98990.56;;;7.38;57.75
58467;BME280;44255;49.244;7.726;2023-02-18T13:33:53;98999.97;;;7.08;58.47
58467;BME280;44255;49.244;7.726;2023-02-18T13:36:35;98986.00;;;7.59;57.84
58467;BME280;44255;49.244;7.726;2023-02-18T13:39:08;99002.59;;;6.89;58.64
58467;BME280;44255;49.244;7.726;2023-02-18T13:41:40;98981.59;;;7.20;58.27
58467;BME280;44255;49.244;7.726;2023-02-18T13:46:55;98980.50;;;7.62;56.65
58467;BME280;44255;49.244;7.726;2023-02-18T13:49:27;98978.38;;;7.12;57.94
58467;BME280;44255;49.244;7.726;2023-02-18T13:51:57;98985.75;;;7.06;57.68
58467;BME280;44255;49.244;7.726;2023-02-18T13:54:27;98997.91;;;6.74;58.30
58467;BME280;44255;49.244;7.726;2023-02-18T13:57:05;98991.00;;;6.68;58.43
58467;BME280;44255;49.244;7.726;2023-02-18T13:59:39;98975.66;;;6.92;58.24
58467;BME280;44255;49.244;7.726;2023-02-18T14:04:49;98964.75;;;7.16;57.35
58467;BME280;44255;49.244;7.726;2023-02-18T14:25:56;98997.34;;;6.22;59.94
58467;BME280;44255;49.244;7.726;2023-02-18T14:31:22;98984.84;;;6.23;60.04
58467;BME280;44255;49.244;7.726;2023-02-18T14:36:48;98979.06;;;6.55;60.39
58467;BME280;44255;49.244;7.726;2023-02-18T14:50:14;98966.88;;;6.47;59.22
58467;BME280;44255;49.244;7.726;2023-02-18T14:52:43;98968.25;;;6.35;59.72
58467;BME280;44255;49.244;7.726;2023-02-18T14:55:25;98963.09;;;6.74;58.46
58467;BME280;44255;49.244;7.726;2023-02-18T14:57:52;98967.63;;;6.72;59.11
58467;BME280;44255;49.244;7.726;2023-02-18T15:00:23;98970.69;;;6.21;59.80
58467;BME280;44255;49.244;7.726;2023-02-18T15:02:52;98969.41;;;6.73;58.61
58467;BME280;44255;49.244;7.726;2023-02-18T15:05:21;98966.19;;;5.99;60.42
58467;BME280;44255;49.244;7.726;2023-02-18T15:08:04;98984.31;;;6.35;59.64
58467;BME280;44255;49.244;7.726;2023-02-18T15:10:42;98967.72;;;6.27;59.87
58467;BME280;44255;49.244;7.726;2023-02-18T15:15:48;98966.47;;;6.36;60.75
58467;BME280;44255;49.244;7.726;2023-02-18T15:20:46;98974.66;;;6.11;61.48
58467;BME280;44255;49.244;7.726;2023-02-18T15:23:15;98982.00;;;5.83;61.85
58467;BME280;44255;49.244;7.726;2023-02-18T15:25:44;98971.41;;;6.02;62.02
58467;BME280;44255;49.244;7.726;2023-02-18T15:28:30;98962.06;;;6.13;61.86
58467;BME280;44255;49.244;7.726;2023-02-18T15:31:00;98973.28;;;6.00;62.74
58467;BME280;44255;49.244;7.726;2023-02-18T15:33:26;98972.16;;;5.84;62.91
58467;BME280;44255;49.244;7.726;2023-02-18T15:35:51;98958.34;;;6.17;62.28
58467;BME280;44255;49.244;7.726;2023-02-18T15:38:24;98963.19;;;6.29;61.97
58467;BME280;44255;49.244;7.726;2023-02-18T15:40:51;98965.97;;;6.05;63.56
58467;BME280;44255;49.244;7.726;2023-02-18T15:43:21;98965.41;;;5.53;64.62
58467;BME280;44255;49.244;7.726;2023-02-18T15:45:49;98967.63;;;6.08;63.33
58467;BME280;44255;49.244;7.726;2023-02-18T15:48:27;98959.31;;;5.71;65.04
58467;BME280;44255;49.244;7.726;2023-02-18T15:50:56;98972.06;;;5.87;64.19
58467;BME280;44255;49.244;7.726;2023-02-18T15:53:22;98966.97;;;5.33;65.98
58467;BME280;44255;49.244;7.726;2023-02-18T15:55:50;98971.16;;;5.64;65.52
58467;BME280;44255;49.244;7.726;2023-02-18T15:58:35;98950.66;;;5.64;64.51
58467;BME280;44255;49.244;7.726;2023-02-18T16:01:06;98953.56;;;5.80;64.80
58467;BME280;44255;49.244;7.726;2023-02-18T16:03:45;98958.34;;;6.17;63.50
58467;BME280;44255;49.244;7.726;2023-02-18T16:06:24;98972.91;;;5.65;65.12
58467;BME280;44255;49.244;7.726;2023-02-18T16:11:39;98968.56;;;5.62;64.94
58467;BME280;44255;49.244;7.726;2023-02-18T16:14:05;98969.25;;;5.44;65.73
58467;BME280;44255;49.244;7.726;2023-02-18T16:16:36;98957.78;;;5.64;64.97
58467;BME280;44255;49.244;7.726;2023-02-18T16:19:03;98950.97;;;5.79;64.64
58467;BME280;44255;49.244;7.726;2023-02-18T16:21:37;98958.63;;;5.88;64.12
58467;BME280;44255;49.244;7.726;2023-02-18T16:24:22;98968.38;;;5.67;64.85
58467;BME280;44255;49.244;7.726;2023-02-18T16:26:50;98953.69;;;5.77;64.68
58467;BME280;44255;49.244;7.726;2023-02-18T16:29:23;98974.31;;;5.51;65.86
58467;BME280;44255;49.244;7.726;2023-02-18T16:31:49;98957.97;;;5.59;64.79
58467;BME280;44255;49.244;7.726;2023-02-18T16:34:14;98962.72;;;5.75;64.42
58467;BME280;44255;49.244;7.726;2023-02-18T16:36:40;98957.97;;;6.04;63.80
58467;BME280;44255;49.244;7.726;2023-02-18T16:39:27;98964.84;;;5.67;64.80
58467;BME280;44255;49.244;7.726;2023-02-18T16:41:54;98970.91;;;5.48;66.39
58467;BME280;44255;49.244;7.726;2023-02-18T16:44:19;98960.41;;;5.42;66.14
58467;BME280;44255;49.244;7.726;2023-02-18T16:46:44;98965.63;;;5.46;65.74
58467;BME280;44255;49.244;7.726;2023-02-18T16:49:11;98967.56;;;5.65;65.15
58467;BME280;44255;49.244;7.726;2023-02-18T16:51:38;98975.28;;;5.73;64.70
58467;BME280;44255;49.244;7.726;2023-02-18T16:54:03;98972.13;;;5.85;64.17
58467;BME280;44255;49.244;7.726;2023-02-18T16:56:31;98977.16;;;5.71;64.04
58467;BME280;44255;49.244;7.726;2023-02-18T16:58:57;98975.66;;;5.86;63.60
58467;BME280;44255;49.244;7.726;2023-02-18T17:01:37;98984.31;;;5.46;64.82
58467;BME280;44255;49.244;7.726;2023-02-18T17:04:06;98978.84;;;5.96;63.34
58467;BME280;44255;49.244;7.726;2023-02-18T17:06:34;98981.59;;;5.48;64.15
58467;BME280;44255;49.244;7.726;2023-02-18T17:09:00;98970.47;;;6.03;63.13
58467;BME280;44255;49.244;7.726;2023-02-18T17:11:29;98975.41;;;5.92;64.16
58467;BME280;44255;49.244;7.726;2023-02-18T17:13:55;98978.03;;;5.71;64.47
58467;BME280;44255;49.244;7.726;2023-02-18T17:16:24;98986.78;;;5.53;65.00
58467;BME280;44255;49.244;7.726;2023-02-18T17:18:49;98977.25;;;5.45;66.83
58467;BME280;44255;49.244;7.726;2023-02-18T17:21:17;98990.66;;;5.68;64.86
58467;BME280;44255;49.244;7.726;2023-02-18T17:23:43;98994.03;;;5.49;65.90
58467;BME280;44255;49.244;7.726;2023-02-18T17:26:13;98993.47;;;5.87;64.80
58467;BME280;44255;49.244;7.726;2023-02-18T17:28:39;98993.69;;;5.80;65.20
58467;BME280;44255;49.244;7.726;2023-02-18T17:31:05;98999.28;;;5.27;66.87
58467;BME280;44255;49.244;7.726;2023-02-18T17:33:30;98990.75;;;5.41;66.92
58467;BME280;44255;49.244;7.726;2023-02-18T17:35:55;99005.34;;;6.02;64.82
58467;BME280;44255;49.244;7.726;2023-02-18T17:38:20;98996.13;;;5.64;66.89
58467;BME280;44255;49.244;7.726;2023-02-18T17:40:47;99002.41;;;5.86;65.79
58467;BME280;44255;49.244;7.726;2023-02-18T17:43:15;99005.13;;;5.62;65.80
58467;BME280;44255;49.244;7.726;2023-02-18T17:45:44;99006.50;;;6.17;64.36
58467;BME280;44255;49.244;7.726;2023-02-18T17:48:12;99016.34;;;5.94;64.58
58467;BME280;44255;49.244;7.726;2023-02-18T17:50:37;99009.63;;;6.28;64.24
58467;BME280;44255;49.244;7.726;2023-02-18T17:53:02;99020.28;;;6.30;64.39
58467;BME280;44255;49.244;7.726;2023-02-18T17:55:34;99017.66;;;6.28;64.32
58467;BME280;44255;49.244;7.726;2023-02-18T17:57:59;99020.69;;;5.74;65.71
58467;BME280;44255;49.244;7.726;2023-02-18T18:00:28;99022.69;;;6.14;64.87
58467;BME280;44255;49.244;7.726;2023-02-18T18:02:54;99018.97;;;5.96;65.03
58467;BME280;44255;49.244;7.726;2023-02-18T18:05:21;99023.44;;;6.17;64.15
58467;BME280;44255;49.244;7.726;2023-02-18T18:07:48;99022.47;;;5.98;65.34
58467;BME280;44255;49.244;7.726;2023-02-18T18:10:14;99020.81;;;5.71;65.02
58467;BME280;44255;49.244;7.726;2023-02-18T18:12:39;99016.47;;;5.91;65.08
58467;BME280;44255;49.244;7.726;2023-02-18T18:15:20;99026.59;;;5.35;64.60
58467;BME280;44255;49.244;7.726;2023-02-18T18:17:45;99013.09;;;5.63;64.43
58467;BME280;44255;49.244;7.726;2023-02-18T18:20:11;99029.91;;;5.42;64.37
58467;BME280;44255;49.244;7.726;2023-02-18T18:22:36;99015.94;;;5.59;63.99
58467;BME280;44255;49.244;7.726;2023-02-18T18:25:01;99024.00;;;5.57;62.94
58467;BME280;44255;49.244;7.726;2023-02-18T18:27:28;99013.84;;;5.89;62.53
58467;BME280;44255;49.244;7.726;2023-02-18T18:29:54;99018.94;;;5.73;62.13
58467;BME280;44255;49.244;7.726;2023-02-18T18:32:19;99023.19;;;5.79;62.00
58467;BME280;44255;49.244;7.726;2023-02-18T18:34:46;99019.34;;;5.86;61.83
58467;BME280;44255;49.244;7.726;2023-02-18T18:37:11;99014.00;;;6.08;60.61
58467;BME280;44255;49.244;7.726;2023-02-18T18:39:37;99016.72;;;6.07;61.13
58467;BME280;44255;49.244;7.726;2023-02-18T18:42:02;99013.28;;;6.03;61.27
58467;BME280;44255;49.244;7.726;2023-02-18T18:44:27;99008.88;;;6.02;60.63
58467;BME280;44255;49.244;7.726;2023-02-18T18:46:53;99014.25;;;6.45;59.44
58467;BME280;44255;49.244;7.726;2023-02-18T18:49:18;99016.03;;;6.02;60.17
58467;BME280;44255;49.244;7.726;2023-02-18T18:51:43;99017.97;;;6.20;59.84
58467;BME280;44255;49.244;7.726;2023-02-18T18:54:10;99020.22;;;5.87;60.67
58467;BME280;44255;49.244;7.726;2023-02-18T18:56:36;99024.44;;;6.37;58.97
58467;BME280;44255;49.244;7.726;2023-02-18T18:59:02;99037.00;;;5.43;61.66
58467;BME280;44255;49.244;7.726;2023-02-18T19:01:28;99027.97;;;5.71;60.66
58467;BME280;44255;49.244;7.726;2023-02-18T19:03:53;99026.63;;;5.59;61.30
58467;BME280;44255;49.244;7.726;2023-02-18T19:06:19;99027.31;;;5.64;60.95
58467;BME280;44255;49.244;7.726;2023-02-18T19:08:45;99035.53;;;5.34;62.61
58467;BME280;44255;49.244;7.726;2023-02-18T19:11:12;99035.00;;;5.73;60.98
58467;BME280;44255;49.244;7.726;2023-02-18T19:13:38;99022.91;;;5.63;61.38
58467;BME280;44255;49.244;7.726;2023-02-18T19:16:30;99023.38;;;6.19;60.09
58467;BME280;44255;49.244;7.726;2023-02-18T19:18:58;99028.97;;;6.35;58.86
58467;BME280;44255;49.244;7.726;2023-02-18T19:21:23;99024.19;;;5.99;60.52
58467;BME280;44255;49.244;7.726;2023-02-18T19:23:48;99036.78;;;5.73;60.98
58467;BME280;44255;49.244;7.726;2023-02-18T19:26:14;99025.41;;;5.44;61.67
58467;BME280;44255;49.244;7.726;2023-02-18T19:28:40;99020.91;;;6.14;59.68
58467;BME280;44255;49.244;7.726;2023-02-18T19:31:07;99024.94;;;6.02;60.09
58467;BME280;44255;49.244;7.726;2023-02-18T19:33:33;99026.06;;;5.97;60.46
58467;BME280;44255;49.244;7.726;2023-02-18T19:35:58;99026.13;;;5.49;61.48